sensor_id;sensor_type;location;lat;lon;timestamp;pressure;altitude;pressure_sealevel;temperature;humidity
56737;BME280;42618;51.226;4.910;2023-05-06T00:01:33;49731.00;;;-146.94;100.00
56737;BME280;42618;51.226;4.910;2023-05-06T00:04:00;49691.13;;;-146.94;100.00
56737;BME280;42618;51.226;4.910;2023-05-06T00:06:27;49711.06;;;-146.94;100.00
56737;BME280;42618;51.226;4.910;2023-05-06T00:08:54;49687.13;;;-146.94;100.00
56737;BME280;42618;51.226;4.910;2023-05-06T00:11:21;49683.16;;;-146.94;100.00
56737;BME280;42618;51.226;4.910;2023-05-06T00:13:48;49709.06;;;-146.94;100.00
56737;BME280;42618;51.226;4.910;2023-05-06T00:16:14;49689.13;;;-146.94;100.00
56737;BME280;42618;51.226;4.910;2023-05-06T00:18:41;49709.06;;;-146.94;100.00
56737;BME280;42618;51.226;4.910;2023-05-06T00:21:08;49691.13;;;-146.94;100.00
56737;BME280;42618;51.226;4.910;2023-05-06T00:23:35;49744.94;;;-146.94;100.00
56737;BME280;42618;51.226;4.910;2023-05-06T00:26:01;49731.00;;;-146.94;100.00
56737;BME280;42618;51.226;4.910;2023-05-06T00:28:28;49691.13;;;-146.94;100.00
56737;BME280;42618;51.226;4.910;2023-05-06T00:30:55;49711.06;;;-146.94;100.00
56737;BME280;42618;51.226;4.910;2023-05-06T00:33:21;49703.09;;;-146.94;100.00
56737;BME280;42618;51.226;4.910;2023-05-06T00:35:48;49701.09;;;-146.94;100.00
56737;BME280;42618;51.226;4.910;2023-05-06T00:38:15;49701.09;;;-146.94;100.00
56737;BME280;42618;51.226;4.910;2023-05-06T00:40:42;49681.16;;;-146.94;100.00
56737;BME280;42618;51.226;4.910;2023-05-06T00:43:09;49727.00;;;-146.94;100.00
56737;BME280;42618;51.226;4.910;2023-05-06T00:45:36;49707.06;;;-146.94;100.00
56737;BME280;42618;51.226;4.910;2023-05-06T00:48:03;49705.06;;;-146.94;100.00
56737;BME280;42618;51.226;4.910;2023-05-06T00:50:32;49713.06;;;-146.94;100.00
56737;BME280;42618;51.226;4.910;2023-05-06T00:53:01;49687.13;;;-146.94;100.00
56737;BME280;42618;51.226;4.910;2023-05-06T00:55:29;49733.00;;;-146.94;100.00
56737;BME280;42618;51.226;4.910;2023-05-06T00:57:56;49715.03;;;-146.94;100.00
56737;BME280;42618;51.226;4.910;2023-05-06T01:00:23;49723.03;;;-146.94;100.00
56737;BME280;42618;51.226;4.910;2023-05-06T01:02:50;49734.97;;;-146.94;100.00
56737;BME280;42618;51.226;4.910;2023-05-06T01:05:19;49705.06;;;-146.94;100.00
56737;BME280;42618;51.226;4.910;2023-05-06T01:16:03;49748.94;;;-146.94;100.00
56737;BME280;42618;51.226;4.910;2023-05-06T01:18:33;49671.19;;;-146.94;100.00
56737;BME280;42618;51.226;4.910;2023-05-06T01:21:03;49762.88;;;-146.94;100.00
56737;BME280;42618;51.226;4.910;2023-05-06T01:23:50;49766.88;;;-146.94;100.00
56737;BME280;42618;51.226;4.910;2023-05-06T01:26:17;49703.09;;;-146.94;100.00
56737;BME280;42618;51.226;4.910;2023-05-06T01:28:44;49721.03;;;-146.94;100.00
56737;BME280;42618;51.226;4.910;2023-05-06T01:31:12;49713.06;;;-146.94;100.00
56737;BME280;42618;51.226;4.910;2023-05-06T01:33:53;49738.97;;;-146.94;100.00
56737;BME280;42618;51.226;4.910;2023-05-06T01:36:34;49727.00;;;-146.94;100.00
56737;BME280;42618;51.226;4.910;2023-05-06T01:39:24;49721.03;;;-146.94;100.00
56737;BME280;42618;51.226;4.910;2023-05-06T01:41:55;49711.06;;;-146.94;100.00
56737;BME280;42618;51.226;4.910;2023-05-06T01:44:23;49723.03;;;-146.94;100.00
56737;BME280;42618;51.226;4.910;2023-05-06T01:46:53;49709.06;;;-146.94;100.00
56737;BME280;42618;51.226;4.910;2023-05-06T01:49:22;49736.97;;;-146.94;100.00
56737;BME280;42618;51.226;4.910;2023-05-06T01:51:51;49734.97;;;-146.94;100.00
56737;BME280;42618;51.226;4.910;2023-05-06T01:54:18;49746.94;;;-146.94;100.00
56737;BME280;42618;51.226;4.910;2023-05-06T01:56:44;49715.03;;;-146.94;100.00
56737;BME280;42618;51.226;4.910;2023-05-06T01:59:13;49731.00;;;-146.94;100.00
56737;BME280;42618;51.226;4.910;2023-05-06T02:01:40;49731.00;;;-146.94;100.00
56737;BME280;42618;51.226;4.910;2023-05-06T02:04:06;49746.94;;;-146.94;100.00
56737;BME280;42618;51.226;4.910;2023-05-06T02:06:34;49734.97;;;-146.94;100.00
56737;BME280;42618;51.226;4.910;2023-05-06T02:09:01;49719.03;;;-146.94;100.00
56737;BME280;42618;51.226;4.910;2023-05-06T02:11:30;49717.03;;;-146.94;100.00
56737;BME280;42618;51.226;4.910;2023-05-06T02:14:02;49683.16;;;-146.94;100.00
56737;BME280;42618;51.226;4.910;2023-05-06T02:16:31;49725.00;;;-146.94;100.00
56737;BME280;42618;51.226;4.910;2023-05-06T02:18:58;49715.03;;;-146.94;100.00
56737;BME280;42618;51.226;4.910;2023-05-06T02:21:25;49731.00;;;-146.94;100.00
56737;BME280;42618;51.226;4.910;2023-05-06T02:23:53;49713.06;;;-146.94;100.00
56737;BME280;42618;51.226;4.910;2023-05-06T02:26:20;49738.97;;;-146.94;100.00
56737;BME280;42618;51.226;4.910;2023-05-06T02:28:46;49719.03;;;-146.94;100.00
56737;BME280;42618;51.226;4.910;2023-05-06T02:31:14;49705.06;;;-146.94;100.00
56737;BME280;42618;51.226;4.910;2023-05-06T02:33:42;49709.06;;;-146.94;100.00
56737;BME280;42618;51.226;4.910;2023-05-06T02:36:09;49738.97;;;-146.94;100.00
56737;BME280;42618;51.226;4.910;2023-05-06T02:38:36;49711.06;;;-146.94;100.00
56737;BME280;42618;51.226;4.910;2023-05-06T02:41:03;49723.03;;;-146.94;100.00
56737;BME280;42618;51.226;4.910;2023-05-06T02:43:30;49727.00;;;-146.94;100.00
56737;BME280;42618;51.226;4.910;2023-05-06T02:45:57;49727.00;;;-146.94;100.00
56737;BME280;42618;51.226;4.910;2023-05-06T02:48:24;49754.91;;;-146.94;100.00
56737;BME280;42618;51.226;4.910;2023-05-06T02:50:51;49756.91;;;-146.94;100.00
56737;BME280;42618;51.226;4.910;2023-05-06T02:53:18;49748.94;;;-146.94;100.00
56737;BME280;42618;51.226;4.910;2023-05-06T02:55:45;49685.13;;;-146.94;100.00
56737;BME280;42618;51.226;4.910;2023-05-06T02:58:12;49723.03;;;-146.94;100.00
56737;BME280;42618;51.226;4.910;2023-05-06T03:00:39;49725.00;;;-146.94;100.00
56737;BME280;42618;51.226;4.910;2023-05-06T03:03:05;49725.00;;;-146.94;100.00
56737;BME280;42618;51.226;4.910;2023-05-06T03:05:32;49725.00;;;-146.94;100.00
56737;BME280;42618;51.226;4.910;2023-05-06T03:07:59;49711.06;;;-146.94;100.00
56737;BME280;42618;51.226;4.910;2023-05-06T03:10:26;49697.09;;;-146.94;100.00
56737;BME280;42618;51.226;4.910;2023-05-06T03:12:54;49697.09;;;-146.94;100.00
56737;BME280;42618;51.226;4.910;2023-05-06T03:15:21;49754.91;;;-146.94;100.00
56737;BME280;42618;51.226;4.910;2023-05-06T03:17:47;49736.97;;;-146.94;100.00
56737;BME280;42618;51.226;4.910;2023-05-06T03:20:14;49750.94;;;-146.94;100.00
56737;BME280;42618;51.226;4.910;2023-05-06T03:22:47;49731.00;;;-146.94;100.00
56737;BME280;42618;51.226;4.910;2023-05-06T03:25:16;49727.00;;;-146.94;100.00
56737;BME280;42618;51.226;4.910;2023-05-06T03:27:43;49729.00;;;-146.94;100.00
56737;BME280;42618;51.226;4.910;2023-05-06T03:30:16;49734.97;;;-146.94;100.00
56737;BME280;42618;51.226;4.910;2023-05-06T03:32:44;49734.97;;;-146.94;100.00
56737;BME280;42618;51.226;4.910;2023-05-06T03:35:15;49758.91;;;-146.94;100.00
56737;BME280;42618;51.226;4.910;2023-05-06T03:37:45;49762.88;;;-146.94;100.00
56737;BME280;42618;51.226;4.910;2023-05-06T03:40:12;49709.06;;;-146.94;100.00
56737;BME280;42618;51.226;4.910;2023-05-06T03:42:39;49719.03;;;-146.94;100.00
56737;BME280;42618;51.226;4.910;2023-05-06T03:45:07;49758.91;;;-146.94;100.00
56737;BME280;42618;51.226;4.910;2023-05-06T03:47:35;49770.88;;;-146.94;100.00
56737;BME280;42618;51.226;4.910;2023-05-06T03:50:03;49746.94;;;-146.94;100.00
56737;BME280;42618;51.226;4.910;2023-05-06T03:52:32;49713.06;;;-146.94;100.00
56737;BME280;42618;51.226;4.910;2023-05-06T03:54:59;49744.94;;;-146.94;100.00
56737;BME280;42618;51.226;4.910;2023-05-06T03:57:28;49715.03;;;-146.94;100.00
56737;BME280;42618;51.226;4.910;2023-05-06T03:59:55;49734.97;;;-146.94;100.00
56737;BME280;42618;51.226;4.910;2023-05-06T04:02:23;49713.06;;;-146.94;100.00
56737;BME280;42618;51.226;4.910;2023-05-06T04:04:50;49723.03;;;-146.94;100.00
56737;BME280;42618;51.226;4.910;2023-05-06T04:07:17;49774.84;;;-146.94;100.00
56737;BME280;42618;51.226;4.910;2023-05-06T04:09:43;49762.88;;;-146.94;100.00
56737;BME280;42618;51.226;4.910;2023-05-06T04:12:10;49754.91;;;-146.94;100.00
56737;BME280;42618;51.226;4.910;2023-05-06T04:14:38;49758.91;;;-146.94;100.00
56737;BME280;42618;51.226;4.910;2023-05-06T04:17:06;49756.91;;;-146.94;100.00
56737;BME280;42618;51.226;4.910;2023-05-06T04:19:33;49723.03;;;-146.94;100.00
56737;BME280;42618;51.226;4.910;2023-05-06T04:22:00;49738.97;;;-146.94;100.00
56737;BME280;42618;51.226;4.910;2023-05-06T04:24:26;49776.84;;;-146.94;100.00
56737;BME280;42618;51.226;4.910;2023-05-06T04:26:57;49723.03;;;-146.94;100.00
56737;BME280;42618;51.226;4.910;2023-05-06T04:29:25;49762.88;;;-146.94;100.00
56737;BME280;42618;51.226;4.910;2023-05-06T04:31:58;49740.97;;;-146.94;100.00
56737;BME280;42618;51.226;4.910;2023-05-06T04:34:28;49727.00;;;-146.94;100.00
56737;BME280;42618;51.226;4.910;2023-05-06T04:36:58;49748.94;;;-146.94;100.00
56737;BME280;42618;51.226;4.910;2023-05-06T04:39:34;49719.03;;;-146.94;100.00
56737;BME280;42618;51.226;4.910;2023-05-06T04:42:05;49760.91;;;-146.94;100.00
56737;BME280;42618;51.226;4.910;2023-05-06T04:44:39;49707.06;;;-146.94;100.00
56737;BME280;42618;51.226;4.910;2023-05-06T04:47:08;49772.84;;;-146.94;100.00
56737;BME280;42618;51.226;4.910;2023-05-06T04:49:36;49723.03;;;-146.94;100.00
56737;BME280;42618;51.226;4.910;2023-05-06T04:52:04;49707.06;;;-146.94;100.00
56737;BME280;42618;51.226;4.910;2023-05-06T04:54:32;49760.91;;;-146.94;100.00
56737;BME280;42618;51.226;4.910;2023-05-06T04:56:59;49729.00;;;-146.94;100.00
56737;BME280;42618;51.226;4.910;2023-05-06T04:59:26;49719.03;;;-146.94;100.00
56737;BME280;42618;51.226;4.910;2023-05-06T05:01:53;49742.94;;;-146.94;100.00
56737;BME280;42618;51.226;4.910;2023-05-06T05:04:20;49727.00;;;-146.94;100.00
56737;BME280;42618;51.226;4.910;2023-05-06T05:06:47;49736.97;;;-146.94;100.00
56737;BME280;42618;51.226;4.910;2023-05-06T05:09:14;49729.00;;;-146.94;100.00
56737;BME280;42618;51.226;4.910;2023-05-06T05:11:43;49754.91;;;-146.94;100.00
56737;BME280;42618;51.226;4.910;2023-05-06T05:14:10;49731.00;;;-146.94;100.00
56737;BME280;42618;51.226;4.910;2023-05-06T05:16:37;49727.00;;;-146.94;100.00
56737;BME280;42618;51.226;4.910;2023-05-06T05:19:04;49733.00;;;-146.94;100.00
56737;BME280;42618;51.226;4.910;2023-05-06T05:21:34;49729.00;;;-146.94;100.00
56737;BME280;42618;51.226;4.910;2023-05-06T05:24:03;49715.03;;;-146.94;100.00
56737;BME280;42618;51.226;4.910;2023-05-06T05:26:30;49731.00;;;-146.94;100.00
56737;BME280;42618;51.226;4.910;2023-05-06T05:28:58;49758.91;;;-146.94;100.00
56737;BME280;42618;51.226;4.910;2023-05-06T05:31:26;49697.09;;;-146.94;100.00
56737;BME280;42618;51.226;4.910;2023-05-06T05:33:53;49738.97;;;-146.94;100.00
56737;BME280;42618;51.226;4.910;2023-05-06T05:36:21;49709.06;;;-146.94;100.00
56737;BME280;42618;51.226;4.910;2023-05-06T05:38:52;49729.00;;;-146.94;100.00
56737;BME280;42618;51.226;4.910;2023-05-06T05:41:21;49733.00;;;-146.94;100.00
56737;BME280;42618;51.226;4.910;2023-05-06T05:43:48;49746.94;;;-146.94;100.00
56737;BME280;42618;51.226;4.910;2023-05-06T05:46:14;49701.09;;;-146.94;100.00
56737;BME280;42618;51.226;4.910;2023-05-06T05:48:45;49733.00;;;-146.94;100.00
56737;BME280;42618;51.226;4.910;2023-05-06T05:51:12;49733.00;;;-146.94;100.00
56737;BME280;42618;51.226;4.910;2023-05-06T05:53:40;49768.88;;;-146.94;100.00
56737;BME280;42618;51.226;4.910;2023-05-06T05:56:07;49715.03;;;-146.94;100.00
56737;BME280;42618;51.226;4.910;2023-05-06T05:58:34;49723.03;;;-146.94;100.00
56737;BME280;42618;51.226;4.910;2023-05-06T06:01:01;49725.00;;;-146.94;100.00
56737;BME280;42618;51.226;4.910;2023-05-06T06:03:30;49729.00;;;-146.94;100.00
56737;BME280;42618;51.226;4.910;2023-05-06T06:05:57;49719.03;;;-146.94;100.00
56737;BME280;42618;51.226;4.910;2023-05-06T06:08:24;49742.94;;;-146.94;100.00
56737;BME280;42618;51.226;4.910;2023-05-06T06:10:54;49731.00;;;-146.94;100.00
56737;BME280;42618;51.226;4.910;2023-05-06T06:13:25;49750.94;;;-146.94;100.00
56737;BME280;42618;51.226;4.910;2023-05-06T06:15:55;49711.06;;;-146.94;100.00
56737;BME280;42618;51.226;4.910;2023-05-06T06:18:22;49733.00;;;-146.94;100.00
56737;BME280;42618;51.226;4.910;2023-05-06T06:20:50;49715.03;;;-146.94;100.00
56737;BME280;42618;51.226;4.910;2023-05-06T06:23:19;49709.06;;;-146.94;100.00
56737;BME280;42618;51.226;4.910;2023-05-06T06:25:46;49715.03;;;-146.94;100.00
56737;BME280;42618;51.226;4.910;2023-05-06T06:28:14;49731.00;;;-146.94;100.00
56737;BME280;42618;51.226;4.910;2023-05-06T06:30:42;49723.03;;;-146.94;100.00
56737;BME280;42618;51.226;4.910;2023-05-06T06:33:09;49707.06;;;-146.94;100.00
56737;BME280;42618;51.226;4.910;2023-05-06T06:35:35;49740.97;;;-146.94;100.00
56737;BME280;42618;51.226;4.910;2023-05-06T06:38:02;49727.00;;;-146.94;100.00
56737;BME280;42618;51.226;4.910;2023-05-06T06:40:29;49733.00;;;-146.94;100.00
56737;BME280;42618;51.226;4.910;2023-05-06T06:42:56;49727.00;;;-146.94;99.80
56737;BME280;42618;51.226;4.910;2023-05-06T06:45:49;49719.03;;;-146.94;99.89
56737;BME280;42618;51.226;4.910;2023-05-06T06:48:18;49701.09;;;-146.94;99.70
56737;BME280;42618;51.226;4.910;2023-05-06T06:50:45;49687.13;;;-146.94;99.45
56737;BME280;42618;51.226;4.910;2023-05-06T06:53:12;49725.00;;;-146.94;98.84
56737;BME280;42618;51.226;4.910;2023-05-06T06:55:42;49729.00;;;-146.94;98.05
56737;BME280;42618;51.226;4.910;2023-05-06T06:58:09;49719.03;;;-146.94;97.97
56737;BME280;42618;51.226;4.910;2023-05-06T07:00:36;49731.00;;;-146.94;97.78
56737;BME280;42618;51.226;4.910;2023-05-06T07:03:03;49653.25;;;-146.94;97.03
56737;BME280;42618;51.226;4.910;2023-05-06T07:05:29;49707.06;;;-146.94;96.27
56737;BME280;42618;51.226;4.910;2023-05-06T07:07:56;49665.22;;;-146.94;96.04
56737;BME280;42618;51.226;4.910;2023-05-06T07:10:23;49707.06;;;-146.94;95.18
56737;BME280;42618;51.226;4.910;2023-05-06T07:12:50;49687.13;;;-146.94;93.70
56737;BME280;42618;51.226;4.910;2023-05-06T07:15:17;49689.13;;;-146.94;92.75
56737;BME280;42618;51.226;4.910;2023-05-06T07:17:43;49681.16;;;-146.94;91.02
56737;BME280;42618;51.226;4.910;2023-05-06T07:20:11;49667.19;;;-146.94;91.15
56737;BME280;42618;51.226;4.910;2023-05-06T07:22:37;49713.06;;;-146.94;90.36
56737;BME280;42618;51.226;4.910;2023-05-06T07:25:07;49733.00;;;-146.94;88.57
56737;BME280;42618;51.226;4.910;2023-05-06T07:27:34;49683.16;;;-146.94;86.44
56737;BME280;42618;51.226;4.910;2023-05-06T07:30:01;49701.09;;;-146.94;86.69
56737;BME280;42618;51.226;4.910;2023-05-06T07:32:27;49695.09;;;-146.94;87.26
56737;BME280;42618;51.226;4.910;2023-05-06T07:34:54;49719.03;;;-146.94;86.09
56737;BME280;42618;51.226;4.910;2023-05-06T07:37:21;49639.28;;;-146.94;85.70
56737;BME280;42618;51.226;4.910;2023-05-06T07:39:48;49691.13;;;-146.94;84.55
56737;BME280;42618;51.226;4.910;2023-05-06T07:42:14;49671.19;;;-146.94;83.65
56737;BME280;42618;51.226;4.910;2023-05-06T07:44:41;49649.25;;;-146.94;84.13
56737;BME280;42618;51.226;4.910;2023-05-06T07:47:08;49677.16;;;-146.94;84.97
56737;BME280;42618;51.226;4.910;2023-05-06T07:49:35;49671.19;;;-146.94;81.76
56737;BME280;42618;51.226;4.910;2023-05-06T07:52:02;49661.22;;;-146.94;80.75
56737;BME280;42618;51.226;4.910;2023-05-06T07:54:29;49667.19;;;-146.94;75.99
56737;BME280;42618;51.226;4.910;2023-05-06T07:56:57;49643.28;;;-146.94;72.92
56737;BME280;42618;51.226;4.910;2023-05-06T07:59:24;49651.25;;;-146.94;77.35
56737;BME280;42618;51.226;4.910;2023-05-06T08:01:51;49643.28;;;-146.94;77.51
56737;BME280;42618;51.226;4.910;2023-05-06T08:04:17;49673.19;;;-146.94;75.07
56737;BME280;42618;51.226;4.910;2023-05-06T08:06:44;49675.19;;;-146.94;73.94
56737;BME280;42618;51.226;4.910;2023-05-06T08:09:11;49637.28;;;-146.94;70.66
56737;BME280;42618;51.226;4.910;2023-05-06T08:11:48;49661.22;;;-146.94;72.38
56737;BME280;42618;51.226;4.910;2023-05-06T08:14:15;49677.16;;;-146.94;70.42
56737;BME280;42618;51.226;4.910;2023-05-06T08:16:42;49629.31;;;-146.94;70.85
56737;BME280;42618;51.226;4.910;2023-05-06T08:19:09;49663.22;;;-146.94;71.50
56737;BME280;42618;51.226;4.910;2023-05-06T08:21:35;49651.25;;;-146.94;70.25
56737;BME280;42618;51.226;4.910;2023-05-06T08:24:02;49681.16;;;-146.94;70.69
56737;BME280;42618;51.226;4.910;2023-05-06T08:26:29;49665.22;;;-146.94;70.89
56737;BME280;42618;51.226;4.910;2023-05-06T08:28:56;49611.38;;;-146.94;71.34
56737;BME280;42618;51.226;4.910;2023-05-06T08:31:24;49623.34;;;-146.94;70.43
56737;BME280;42618;51.226;4.910;2023-05-06T08:33:50;49595.44;;;-146.94;69.97
56737;BME280;42618;51.226;4.910;2023-05-06T08:36:20;49673.19;;;-146.94;69.94
56737;BME280;42618;51.226;4.910;2023-05-06T08:38:47;49609.38;;;-146.94;68.05
56737;BME280;42618;51.226;4.910;2023-05-06T08:41:17;49625.34;;;-146.94;66.67
56737;BME280;42618;51.226;4.910;2023-05-06T08:43:46;49625.34;;;-146.94;69.05
56737;BME280;42618;51.226;4.910;2023-05-06T08:46:13;49647.25;;;-146.94;67.73
56737;BME280;42618;51.226;4.910;2023-05-06T08:48:40;49603.41;;;-146.94;65.18
56737;BME280;42618;51.226;4.910;2023-05-06T08:51:07;49599.41;;;-146.94;67.66
56737;BME280;42618;51.226;4.910;2023-05-06T08:53:35;49627.31;;;-146.94;64.35
56737;BME280;42618;51.226;4.910;2023-05-06T08:56:04;49601.41;;;-146.94;64.48
56737;BME280;42618;51.226;4.910;2023-05-06T08:58:33;49621.34;;;-146.94;64.74
56737;BME280;42618;51.226;4.910;2023-05-06T09:01:01;49613.38;;;-146.94;67.23
56737;BME280;42618;51.226;4.910;2023-05-06T09:03:28;49655.25;;;-146.94;67.10
56737;BME280;42618;51.226;4.910;2023-05-06T09:05:56;49631.31;;;-146.94;66.95
56737;BME280;42618;51.226;4.910;2023-05-06T09:08:23;49663.22;;;-146.94;67.26
56737;BME280;42618;51.226;4.910;2023-05-06T09:10:50;49621.34;;;-146.94;64.66
56737;BME280;42618;51.226;4.910;2023-05-06T09:13:17;49599.41;;;-146.94;62.40
56737;BME280;42618;51.226;4.910;2023-05-06T09:15:48;49595.44;;;-146.94;65.00
56737;BME280;42618;51.226;4.910;2023-05-06T09:18:15;49611.38;;;-146.94;62.09
56737;BME280;42618;51.226;4.910;2023-05-06T09:20:46;49579.47;;;-146.94;59.75
56737;BME280;42618;51.226;4.910;2023-05-06T09:23:15;49611.38;;;-146.94;60.15
56737;BME280;42618;51.226;4.910;2023-05-06T09:25:42;49643.28;;;-146.94;60.09
56737;BME280;42618;51.226;4.910;2023-05-06T09:28:10;49615.38;;;-146.94;59.63
56737;BME280;42618;51.226;4.910;2023-05-06T09:30:41;49625.34;;;-146.94;58.97
56737;BME280;42618;51.226;4.910;2023-05-06T09:33:08;49607.41;;;-146.94;57.82
56737;BME280;42618;51.226;4.910;2023-05-06T09:35:40;49613.38;;;-146.94;60.25
56737;BME280;42618;51.226;4.910;2023-05-06T09:38:08;49601.41;;;-146.94;58.46
56737;BME280;42618;51.226;4.910;2023-05-06T09:40:35;49595.44;;;-146.94;57.67
56737;BME280;42618;51.226;4.910;2023-05-06T09:43:03;49617.38;;;-146.94;57.17
56737;BME280;42618;51.226;4.910;2023-05-06T09:45:30;49611.38;;;-146.94;61.34
56737;BME280;42618;51.226;4.910;2023-05-06T09:47:57;49623.34;;;-146.94;58.39
56737;BME280;42618;51.226;4.910;2023-05-06T09:50:24;49567.53;;;-146.94;58.58
56737;BME280;42618;51.226;4.910;2023-05-06T09:52:51;49575.50;;;-146.94;57.04
56737;BME280;42618;51.226;4.910;2023-05-06T09:55:19;49627.31;;;-146.94;57.54
56737;BME280;42618;51.226;4.910;2023-05-06T09:57:47;49543.59;;;-146.94;53.47
56737;BME280;42618;51.226;4.910;2023-05-06T10:00:15;49567.53;;;-146.94;55.95
56737;BME280;42618;51.226;4.910;2023-05-06T10:02:43;49599.41;;;-146.94;53.32
56737;BME280;42618;51.226;4.910;2023-05-06T10:05:11;49571.50;;;-146.94;52.45
56737;BME280;42618;51.226;4.910;2023-05-06T10:07:39;49557.56;;;-146.94;51.67
56737;BME280;42618;51.226;4.910;2023-05-06T10:10:10;49551.56;;;-146.94;51.66
56737;BME280;42618;51.226;4.910;2023-05-06T10:12:37;49575.50;;;-146.94;53.13
56737;BME280;42618;51.226;4.910;2023-05-06T10:15:05;49589.44;;;-146.94;50.36
56737;BME280;42618;51.226;4.910;2023-05-06T10:17:33;49553.56;;;-146.94;49.06
56737;BME280;42618;51.226;4.910;2023-05-06T10:20:01;49587.47;;;-146.94;52.77
56737;BME280;42618;51.226;4.910;2023-05-06T10:25:28;49567.53;;;-146.94;52.97
56737;BME280;42618;51.226;4.910;2023-05-06T10:27:56;49599.41;;;-146.94;51.22
56737;BME280;42618;51.226;4.910;2023-05-06T10:30:24;49575.50;;;-146.94;52.04
56737;BME280;42618;51.226;4.910;2023-05-06T10:32:55;49573.50;;;-146.94;50.80
56737;BME280;42618;51.226;4.910;2023-05-06T10:40:50;49583.47;;;-146.94;51.69
56737;BME280;42618;51.226;4.910;2023-05-06T10:46:11;49597.44;;;-146.94;51.15
56737;BME280;42618;51.226;4.910;2023-05-06T10:51:45;49553.56;;;-146.94;49.41
56737;BME280;42618;51.226;4.910;2023-05-06T10:59:20;49587.47;;;-146.94;48.25
56737;BME280;42618;51.226;4.910;2023-05-06T11:04:23;49571.50;;;-146.94;47.71
56737;BME280;42618;51.226;4.910;2023-05-06T11:06:51;49559.56;;;-146.94;47.28
56737;BME280;42618;51.226;4.910;2023-05-06T11:09:22;49571.50;;;-146.94;47.41
56737;BME280;42618;51.226;4.910;2023-05-06T11:11:51;49571.50;;;-146.94;47.33
56737;BME280;42618;51.226;4.910;2023-05-06T11:14:44;49587.47;;;-146.94;46.55
56737;BME280;42618;51.226;4.910;2023-05-06T11:17:31;49579.47;;;-146.94;44.83
56737;BME280;42618;51.226;4.910;2023-05-06T11:20:17;49603.41;;;-146.94;44.75
56737;BME280;42618;51.226;4.910;2023-05-06T11:22:44;49581.47;;;-146.94;45.13
56737;BME280;42618;51.226;4.910;2023-05-06T11:25:11;49555.56;;;-146.94;44.88
56737;BME280;42618;51.226;4.910;2023-05-06T11:27:38;49571.50;;;-146.94;45.73
56737;BME280;42618;51.226;4.910;2023-05-06T11:30:05;49543.59;;;-146.94;43.72
56737;BME280;42618;51.226;4.910;2023-05-06T11:32:33;49603.41;;;-146.94;43.37
56737;BME280;42618;51.226;4.910;2023-05-06T11:35:00;49581.47;;;-146.94;43.13
56737;BME280;42618;51.226;4.910;2023-05-06T11:37:27;49559.56;;;-146.94;42.53
56737;BME280;42618;51.226;4.910;2023-05-06T11:39:55;49551.56;;;-146.94;43.73
56737;BME280;42618;51.226;4.910;2023-05-06T11:42:27;49525.66;;;-146.94;43.37
56737;BME280;42618;51.226;4.910;2023-05-06T11:44:55;49551.56;;;-146.94;43.14
56737;BME280;42618;51.226;4.910;2023-05-06T11:47:25;49567.53;;;-146.94;43.81
56737;BME280;42618;51.226;4.910;2023-05-06T11:49:53;49547.59;;;-146.94;44.53
56737;BME280;42618;51.226;4.910;2023-05-06T11:52:20;49581.47;;;-146.94;45.00
56737;BME280;42618;51.226;4.910;2023-05-06T11:54:51;49589.44;;;-146.94;44.63
56737;BME280;42618;51.226;4.910;2023-05-06T11:57:19;49569.50;;;-146.94;44.83
56737;BME280;42618;51.226;4.910;2023-05-06T11:59:52;49585.47;;;-146.94;44.89
56737;BME280;42618;51.226;4.910;2023-05-06T12:02:20;49585.47;;;-146.94;44.40
56737;BME280;42618;51.226;4.910;2023-05-06T12:04:47;49549.59;;;-146.94;43.84
56737;BME280;42618;51.226;4.910;2023-05-06T12:07:15;49555.56;;;-146.94;44.34
56737;BME280;42618;51.226;4.910;2023-05-06T12:09:46;49559.56;;;-146.94;43.75
56737;BME280;42618;51.226;4.910;2023-05-06T12:12:16;49561.53;;;-146.94;45.33
56737;BME280;42618;51.226;4.910;2023-05-06T12:14:45;49551.56;;;-146.94;44.27
56737;BME280;42618;51.226;4.910;2023-05-06T12:17:13;49551.56;;;-146.94;43.38
56737;BME280;42618;51.226;4.910;2023-05-06T12:19:40;49507.72;;;-146.94;42.50
56737;BME280;42618;51.226;4.910;2023-05-06T12:24:40;49547.59;;;-146.94;43.01
56737;BME280;42618;51.226;4.910;2023-05-06T12:27:07;49565.53;;;-146.94;42.08
56737;BME280;42618;51.226;4.910;2023-05-06T12:29:34;49523.66;;;-146.94;42.22
56737;BME280;42618;51.226;4.910;2023-05-06T12:32:08;49587.47;;;-146.94;41.52
56737;BME280;42618;51.226;4.910;2023-05-06T12:34:39;49525.66;;;-146.94;41.42
56737;BME280;42618;51.226;4.910;2023-05-06T12:37:07;49549.59;;;-146.94;41.37
56737;BME280;42618;51.226;4.910;2023-05-06T12:39:38;49537.63;;;-146.94;40.75
56737;BME280;42618;51.226;4.910;2023-05-06T12:42:05;49503.72;;;-146.94;40.10
56737;BME280;42618;51.226;4.910;2023-05-06T12:44:39;49519.69;;;-146.94;39.46
56737;BME280;42618;51.226;4.910;2023-05-06T12:47:07;49575.50;;;-146.94;38.91
56737;BME280;42618;51.226;4.910;2023-05-06T12:52:18;49535.63;;;-146.94;38.72
56737;BME280;42618;51.226;4.910;2023-05-06T12:54:46;49523.66;;;-146.94;40.50
56737;BME280;42618;51.226;4.910;2023-05-06T12:57:13;49513.69;;;-146.94;40.00
56737;BME280;42618;51.226;4.910;2023-05-06T12:59:40;49547.59;;;-146.94;39.85
56737;BME280;42618;51.226;4.910;2023-05-06T13:02:06;49547.59;;;-146.94;40.24
56737;BME280;42618;51.226;4.910;2023-05-06T13:04:33;49567.53;;;-146.94;40.67
56737;BME280;42618;51.226;4.910;2023-05-06T13:07:00;49563.53;;;-146.94;40.15
56737;BME280;42618;51.226;4.910;2023-05-06T13:09:27;49541.59;;;-146.94;40.18
56737;BME280;42618;51.226;4.910;2023-05-06T13:11:54;49585.47;;;-146.94;39.40
56737;BME280;42618;51.226;4.910;2023-05-06T13:14:21;49583.47;;;-146.94;39.71
56737;BME280;42618;51.226;4.910;2023-05-06T13:16:48;49543.59;;;-146.94;39.68